Eden, South Dakota
Current Conditions -  °F | °C
As of 2:55 AM on Friday 31 Oct 2014 (Local Time) from KGWR Reporting Station
Clear Clear  
Wind Chill: 15°   Ceiling: Unl
Heat Index: 23°   Visibility: 10mi
Dew Point: 18°   Wind: 7mph
Humidity: 80%   Direction: 360°N
Pressure: 30.58"   Gusts: NA
Location:  45.62°N, 97.42°W
Report Text: KGWR 310755Z AUTO 36006KT 10SM CLR M05/M08 A3058 RMK A01 P000
Loading
Personal Weather Stations






























Interactive Weather Map
Tropical Storm Tracking
New forecast layout! Learn more

10-Day Weather Forecast

Advertisements
Track Severe Weather on mobile